Time;durP1;ratioP1;P1;durP2;ratioP2;P2;SDS_P1;SDS_P2;PMS_P1;PMS_P2;Temp;Humidity;BMP_temperature;BMP_pressure;BME280_temperature;BME280_humidity;BME280_pressure;Samples;Min_cycle;Max_cycle;Signal;HPM_P1;HPM_P2
2021/01/25 00:01:39;;;;;;;11.00;5.87;;;;;;;-0.60;100.00;99159.75;5025603;28;20204;-77
2021/01/25 00:04:05;;;;;;;12.77;6.40;;;;;;;-0.58;100.00;99158.91;5032406;28;20476;-77
2021/01/25 00:06:32;;;;;;;12.77;6.13;;;;;;;-0.55;100.00;99165.72;5023793;28;20212;-77
2021/01/25 00:08:58;;;;;;;14.73;7.10;;;;;;;-0.54;100.00;99169.13;5027359;28;20695;-77
2021/01/25 00:11:24;;;;;;;16.13;7.03;;;;;;;-0.55;100.00;99167.44;5025194;28;20202;-76
2021/01/25 00:13:50;;;;;;;14.00;6.77;;;;;;;-0.57;100.00;99168.28;5031918;28;20256;-77
2021/01/25 00:16:17;;;;;;;18.93;7.97;;;;;;;-0.58;100.00;99169.16;5022555;28;20211;-77
2021/01/25 00:18:42;;;;;;;17.87;6.73;;;;;;;-0.57;100.00;99162.31;5025229;28;20266;-77
2021/01/25 00:21:08;;;;;;;13.87;6.47;;;;;;;-0.56;100.00;99158.91;5026451;28;20254;-77
2021/01/25 00:23:34;;;;;;;15.37;6.93;;;;;;;-0.55;100.00;99163.16;5030310;28;20239;-77
2021/01/25 00:26:00;;;;;;;18.50;7.83;;;;;;;-0.54;100.00;99161.47;5027689;28;20228;-77
2021/01/25 00:28:26;;;;;;;22.93;8.20;;;;;;;-0.53;100.00;99155.47;5031007;28;20269;-77
2021/01/25 00:30:52;;;;;;;20.47;8.10;;;;;;;-0.53;100.00;99161.44;5032013;28;20211;-77
2021/01/25 00:33:19;;;;;;;18.13;7.30;;;;;;;-0.52;100.00;99165.69;5026915;28;20663;-77
2021/01/25 00:35:45;;;;;;;17.17;8.13;;;;;;;-0.51;100.00;99162.28;5030917;28;20300;-77
2021/01/25 00:38:12;;;;;;;21.20;8.23;;;;;;;-0.48;100.00;99161.41;5028050;28;20664;-76
2021/01/25 00:40:38;;;;;;;19.80;7.63;;;;;;;-0.48;100.00;99169.09;5027926;28;20682;-77
2021/01/25 00:43:04;;;;;;;23.50;8.67;;;;;;;-0.49;100.00;99168.25;5005944;28;20212;-76
2021/01/25 00:45:30;;;;;;;24.97;8.70;;;;;;;-0.49;100.00;99165.69;5015358;28;20311;-77
2021/01/25 00:47:56;;;;;;;18.67;8.07;;;;;;;-0.47;100.00;99165.69;5026703;28;20193;-77
2021/01/25 00:50:23;;;;;;;19.17;8.00;;;;;;;-0.48;100.00;99169.09;5031807;28;20722;-77
2021/01/25 00:52:49;;;;;;;18.73;8.37;;;;;;;-0.46;100.00;99175.06;5029675;28;20216;-76
2021/01/25 00:55:16;;;;;;;21.87;9.30;;;;;;;-0.45;100.00;99169.09;5030102;28;20219;-77
2021/01/25 00:57:44;;;;;;;21.23;8.03;;;;;;;-0.46;100.00;99169.94;5024783;28;20237;-77
2021/01/25 01:00:11;;;;;;;19.27;7.87;;;;;;;-0.46;100.00;99181.06;5033556;28;20200;-77
2021/01/25 01:02:37;;;;;;;18.83;7.90;;;;;;;-0.45;100.00;99185.31;5024237;28;20235;-77
2021/01/25 01:05:05;;;;;;;20.90;8.77;;;;;;;-0.47;100.00;99184.47;5030892;28;20211;-77
2021/01/25 01:07:31;;;;;;;19.20;8.37;;;;;;;-0.44;100.00;99193.81;5024575;28;20255;-77
2021/01/25 01:09:57;;;;;;;22.30;8.30;;;;;;;-0.43;100.00;99188.69;5029593;28;20205;-77
2021/01/25 01:12:23;;;;;;;19.17;8.37;;;;;;;-0.45;100.00;99190.41;5025579;28;20262;-76
2021/01/25 01:14:49;;;;;;;25.20;8.17;;;;;;;-0.42;100.00;99197.25;5034269;28;20204;-77
2021/01/25 01:17:15;;;;;;;25.60;9.33;;;;;;;-0.41;100.00;99198.94;5025979;28;20221;-77
2021/01/25 01:19:41;;;;;;;20.43;8.40;;;;;;;-0.43;100.00;99196.38;5033872;28;20280;-77
2021/01/25 01:22:06;;;;;;;19.07;7.37;;;;;;;-0.42;100.00;99198.09;5008115;28;20201;-77
2021/01/25 01:24:33;;;;;;;15.27;7.73;;;;;;;-0.41;100.00;99193.81;5017620;28;20608;-77
2021/01/25 01:26:59;;;;;;;19.37;8.23;;;;;;;-0.42;100.00;99195.53;5025995;28;20224;-77
2021/01/25 01:29:25;;;;;;;21.73;8.73;;;;;;;-0.43;100.00;99191.25;5008724;28;20268;-77
2021/01/25 01:31:51;;;;;;;20.37;8.30;;;;;;;-0.44;100.00;99189.56;5031282;28;20287;-77
2021/01/25 01:34:16;;;;;;;21.10;8.43;;;;;;;-0.40;100.00;99191.25;5024519;28;20201;-77
2021/01/25 01:36:42;;;;;;;19.97;8.53;;;;;;;-0.40;100.00;99192.97;5031237;28;20232;-76
2021/01/25 01:39:08;;;;;;;20.13;8.90;;;;;;;-0.41;100.00;99192.09;5024237;28;20204;-77
2021/01/25 01:41:36;;;;;;;19.50;8.53;;;;;;;-0.39;100.00;99198.09;5030108;28;20678;-77
2021/01/25 01:44:04;;;;;;;19.00;8.50;;;;;;;-0.39;100.00;99195.53;5027378;28;20221;-77
2021/01/25 01:46:30;;;;;;;18.57;8.80;;;;;;;-0.38;100.00;99198.94;5027472;28;20277;-77
2021/01/25 01:48:55;;;;;;;20.07;8.90;;;;;;;-0.38;100.00;99194.66;5028658;28;20203;-77
2021/01/25 01:51:21;;;;;;;22.40;10.10;;;;;;;-0.36;100.00;99201.50;5032943;28;20237;-77
2021/01/25 01:53:47;;;;;;;19.17;8.13;;;;;;;-0.37;100.00;99205.75;5026637;28;20212;-76
2021/01/25 01:56:13;;;;;;;21.27;8.93;;;;;;;-0.37;100.00;99205.75;5011468;28;20257;-77
2021/01/25 01:58:40;;;;;;;23.40;9.93;;;;;;;-0.38;100.00;99204.91;5025614;28;20204;-77
2021/01/25 02:01:06;;;;;;;24.13;9.30;;;;;;;-0.37;100.00;99205.75;5027972;28;20200;-77
2021/01/25 02:03:32;;;;;;;20.40;8.83;;;;;;;-0.35;100.00;99205.75;5008616;28;20223;-77
2021/01/25 02:05:58;;;;;;;20.50;8.77;;;;;;;-0.36;100.00;99202.34;5018588;28;20228;-77
2021/01/25 02:08:25;;;;;;;23.80;10.17;;;;;;;-0.37;100.00;99205.75;5021156;28;20203;-77
2021/01/25 02:10:54;;;;;;;20.53;9.17;;;;;;;-0.36;100.00;99207.47;5024197;28;20702;-77
2021/01/25 02:13:22;;;;;;;21.47;10.00;;;;;;;-0.36;100.00;99207.47;5023682;28;20198;-77
2021/01/25 02:15:49;;;;;;;24.37;9.60;;;;;;;-0.38;100.00;99210.03;5029188;28;20626;-77
2021/01/25 02:18:15;;;;;;;27.03;9.07;;;;;;;-0.36;100.00;99207.47;5024004;28;20209;-77
2021/01/25 02:20:43;;;;;;;21.80;9.40;;;;;;;-0.35;100.00;99198.06;5028995;28;20278;-76
2021/01/25 02:23:37;;;;;;;22.50;9.43;;;;;;;-0.33;100.00;99206.63;5023673;28;20267;-77
2021/01/25 02:26:09;;;;;;;20.40;8.90;;;;;;;-0.34;100.00;99205.75;5021485;28;20388;-77
2021/01/25 02:28:39;;;;;;;23.30;9.90;;;;;;;-0.34;100.00;99202.34;5019668;28;20207;-76
2021/01/25 02:31:09;;;;;;;23.60;9.40;;;;;;;-0.33;100.00;99209.16;5032705;28;20205;-76
2021/01/25 02:33:41;;;;;;;22.90;9.40;;;;;;;-0.34;100.00;99210.84;5021385;28;20200;-76
2021/01/25 02:36:08;;;;;;;21.60;9.60;;;;;;;-0.34;100.00;99210.84;5031426;28;20213;-76
2021/01/25 02:38:35;;;;;;;21.67;9.70;;;;;;;-0.33;100.00;99204.06;5024241;28;20209;-77
2021/01/25 02:41:02;;;;;;;24.17;10.17;;;;;;;-0.33;100.00;99214.28;5030427;28;20204;-77
2021/01/25 02:43:29;;;;;;;22.03;10.13;;;;;;;-0.32;100.00;99215.97;5007275;28;20261;-76
2021/01/25 02:45:57;;;;;;;22.30;9.73;;;;;;;-0.31;100.00;99215.13;5033682;28;20244;-77
2021/01/25 02:48:23;;;;;;;21.07;9.20;;;;;;;-0.31;100.00;99213.41;5025438;28;20206;-77
2021/01/25 02:50:50;;;;;;;23.33;10.13;;;;;;;-0.29;100.00;99219.38;5010642;28;20269;-77
2021/01/25 02:53:16;;;;;;;22.87;10.27;;;;;;;-0.30;100.00;99216.81;5025335;28;20207;-77
2021/01/25 02:55:42;;;;;;;20.73;9.30;;;;;;;-0.31;100.00;99220.25;5023811;28;20224;-77
2021/01/25 02:58:08;;;;;;;22.63;9.77;;;;;;;-0.31;100.00;99215.97;5025122;28;20219;-77
2021/01/25 03:00:35;;;;;;;21.33;9.40;;;;;;;-0.30;100.00;99217.69;5026699;28;20203;-77
2021/01/25 03:03:02;;;;;;;22.83;10.33;;;;;;;-0.30;100.00;99214.25;5026511;28;20219;-77
2021/01/25 03:05:29;;;;;;;24.17;10.07;;;;;;;-0.29;100.00;99215.97;5025571;28;20644;-78
2021/01/25 03:07:56;;;;;;;24.33;9.97;;;;;;;-0.29;100.00;99218.53;5027014;28;20210;-77
2021/01/25 03:10:22;;;;;;;22.27;9.17;;;;;;;-0.29;100.00;99215.97;5023606;28;20200;-77
2021/01/25 03:12:48;;;;;;;23.07;10.00;;;;;;;-0.29;100.00;99221.94;5030844;28;20761;-76
2021/01/25 03:15:17;;;;;;;25.17;9.93;;;;;;;-0.29;100.00;99232.19;5022879;28;20316;-77
2021/01/25 03:17:43;;;;;;;20.17;9.50;;;;;;;-0.29;100.00;99232.19;5030820;28;20204;-76
2021/01/25 03:20:11;;;;;;;27.40;10.67;;;;;;;-0.30;100.00;99233.06;5024099;28;20230;-77
2021/01/25 03:22:37;;;;;;;24.07;10.20;;;;;;;-0.30;100.00;99233.06;5030956;28;20202;-77
2021/01/25 03:25:03;;;;;;;22.37;8.77;;;;;;;-0.30;100.00;99229.63;5021068;28;20301;-77
2021/01/25 03:27:29;;;;;;;26.43;10.13;;;;;;;-0.32;100.00;99227.06;5026892;28;20567;-77
2021/01/25 03:29:55;;;;;;;22.37;10.40;;;;;;;-0.31;100.00;99233.91;5022553;28;20204;-77
2021/01/25 03:32:21;;;;;;;23.73;9.57;;;;;;;-0.29;100.00;99227.06;5026318;28;20209;-77
2021/01/25 03:34:47;;;;;;;23.70;10.00;;;;;;;-0.31;100.00;99228.78;5023682;28;20239;-77
2021/01/25 03:37:14;;;;;;;26.13;10.10;;;;;;;-0.31;100.00;99231.34;5032157;28;20261;-77
2021/01/25 03:39:39;;;;;;;26.10;10.07;;;;;;;-0.31;100.00;99233.06;5025095;28;20211;-76
2021/01/25 03:42:05;;;;;;;24.73;9.47;;;;;;;-0.31;100.00;99241.59;5030196;28;20201;-76
2021/01/25 03:44:31;;;;;;;24.60;10.03;;;;;;;-0.32;100.00;99234.75;5027113;28;20222;-77
2021/01/25 03:46:57;;;;;;;24.00;9.87;;;;;;;-0.32;100.00;99239.88;5031635;28;20252;-76
2021/01/25 03:49:23;;;;;;;23.13;9.97;;;;;;;-0.33;100.00;99233.06;5025240;28;20208;-77
2021/01/25 03:51:49;;;;;;;24.73;10.37;;;;;;;-0.33;100.00;99239.91;5030389;28;20603;-77
2021/01/25 03:54:15;;;;;;;23.87;9.50;;;;;;;-0.35;100.00;99242.47;5023351;28;20615;-77
2021/01/25 03:56:41;;;;;;;25.37;9.93;;;;;;;-0.33;100.00;99234.78;5025743;28;20390;-77
2021/01/25 03:59:07;;;;;;;23.63;10.33;;;;;;;-0.33;100.00;99242.47;5026149;28;20222;-77
2021/01/25 04:01:33;;;;;;;28.67;11.33;;;;;;;-0.34;100.00;99246.72;5025220;28;20223;-77
2021/01/25 04:03:59;;;;;;;26.63;10.73;;;;;;;-0.35;100.00;99246.72;5010499;28;20233;-77
2021/01/25 04:06:25;;;;;;;28.07;11.83;;;;;;;-0.36;100.00;99240.75;5007416;28;20251;-77
2021/01/25 04:08:51;;;;;;;29.37;10.87;;;;;;;-0.38;100.00;99240.75;5027223;28;20251;-77
2021/01/25 04:11:17;;;;;;;23.60;10.33;;;;;;;-0.34;100.00;99243.31;5024390;28;20199;-77
2021/01/25 04:13:43;;;;;;;27.83;11.47;;;;;;;-0.36;100.00;99245.88;5026760;28;20206;-77
2021/01/25 04:16:10;;;;;;;27.10;10.53;;;;;;;-0.36;100.00;99247.59;5023729;28;20230;-77
2021/01/25 04:18:36;;;;;;;25.03;10.70;;;;;;;-0.36;100.00;99247.59;5029280;28;20215;-77
2021/01/25 04:21:01;;;;;;;23.07;10.07;;;;;;;-0.36;100.00;99252.72;5024779;28;20278;-77
2021/01/25 04:23:27;;;;;;;22.73;9.87;;;;;;;-0.38;100.00;99251.00;5028977;28;20294;-77
2021/01/25 04:25:53;;;;;;;25.33;10.40;;;;;;;-0.43;100.00;99259.56;5021091;28;20224;-77
2021/01/25 04:28:20;;;;;;;30.70;11.20;;;;;;;-0.48;100.00;99261.28;5029871;28;20222;-77
2021/01/25 04:30:46;;;;;;;29.20;11.37;;;;;;;-0.52;100.00;99268.13;5023474;28;20209;-77
2021/01/25 04:33:11;;;;;;;27.80;11.07;;;;;;;-0.54;100.00;99259.59;5029168;28;20678;-77
2021/01/25 04:35:39;;;;;;;22.93;10.13;;;;;;;-0.57;100.00;99270.69;5023387;28;20699;-76
2021/01/25 04:38:05;;;;;;;25.53;11.33;;;;;;;-0.58;100.00;99271.56;5031711;28;20191;-77
2021/01/25 04:40:31;;;;;;;25.30;10.97;;;;;;;-0.56;100.00;99274.13;5021773;28;20216;-77
2021/01/25 04:42:58;;;;;;;26.20;10.03;;;;;;;-0.57;100.00;99272.41;5025400;28;20210;-76
2021/01/25 04:45:25;;;;;;;24.90;10.70;;;;;;;-0.57;100.00;99275.81;5025012;28;20236;-77
2021/01/25 04:47:54;;;;;;;26.03;10.03;;;;;;;-0.58;100.00;99281.81;5023080;28;20219;-76
2021/01/25 04:50:20;;;;;;;23.17;9.50;;;;;;;-0.57;100.00;99280.94;5020610;28;20204;-76
2021/01/25 04:52:47;;;;;;;22.60;11.00;;;;;;;-0.56;100.00;99276.69;5012976;28;20571;-76
2021/01/25 04:55:13;;;;;;;26.90;11.23;;;;;;;-0.55;100.00;99287.75;5024127;28;20225;-77
2021/01/25 04:57:41;;;;;;;26.13;10.57;;;;;;;-0.53;100.00;99283.50;5023845;28;20219;-77
2021/01/25 05:00:08;;;;;;;24.00;10.23;;;;;;;-0.53;100.00;99286.06;5025373;28;20207;-77
2021/01/25 05:02:36;;;;;;;30.57;11.00;;;;;;;-0.51;100.00;99294.56;5023514;28;20200;-77
2021/01/25 05:05:03;;;;;;;23.00;10.03;;;;;;;-0.51;100.00;99286.88;5024000;28;20238;-77
2021/01/25 05:07:29;;;;;;;22.93;10.33;;;;;;;-0.49;100.00;99287.72;5025372;28;20205;-77
2021/01/25 05:09:55;;;;;;;21.73;10.97;;;;;;;-0.50;100.00;99294.56;5022350;28;20231;-76
2021/01/25 05:12:21;;;;;;;23.30;10.17;;;;;;;-0.50;100.00;99296.28;5026570;28;20452;-77
2021/01/25 05:14:47;;;;;;;26.30;10.30;;;;;;;-0.49;100.00;99297.97;5031847;28;20750;-77
2021/01/25 05:17:14;;;;;;;27.63;11.53;;;;;;;-0.50;100.00;99288.59;5024647;28;20199;-77
2021/01/25 05:19:43;;;;;;;30.27;12.27;;;;;;;-0.50;100.00;99294.56;5035041;28;20251;-77
2021/01/25 05:22:13;;;;;;;27.53;12.10;;;;;;;-0.50;100.00;99294.56;5027216;28;20604;-77
2021/01/25 05:24:44;;;;;;;30.97;12.70;;;;;;;-0.49;100.00;99295.41;5031021;28;20218;-77
2021/01/25 05:27:10;;;;;;;31.43;12.17;;;;;;;-0.50;100.00;99298.84;5021983;28;20205;-77
2021/01/25 05:29:36;;;;;;;27.33;11.80;;;;;;;-0.49;100.00;99297.97;5030190;28;20210;-77
2021/01/25 05:32:08;;;;;;;25.87;11.20;;;;;;;-0.49;100.00;99295.41;5027451;28;20241;-76
2021/01/25 05:34:33;;;;;;;23.47;10.37;;;;;;;-0.51;100.00;99302.25;5034896;28;20318;-77
2021/01/25 05:37:00;;;;;;;19.53;9.00;;;;;;;-0.53;100.00;99304.81;5025636;28;20227;-77
2021/01/25 05:39:31;;;;;;;25.30;11.07;;;;;;;-0.53;100.00;99303.97;5036344;28;20204;-77
2021/01/25 05:41:59;;;;;;;22.23;10.47;;;;;;;-0.53;100.00;99301.41;5020729;28;20278;-77
2021/01/25 05:44:25;;;;;;;23.53;10.07;;;;;;;-0.54;100.00;99299.72;5028970;28;20220;-77
2021/01/25 05:47:02;;;;;;;25.97;10.70;;;;;;;-0.52;100.00;99313.38;5024710;28;20421;-77
2021/01/25 05:49:28;;;;;;;28.77;11.10;;;;;;;-0.53;100.00;99311.66;5017726;28;20211;-77
2021/01/25 05:51:55;;;;;;;30.20;11.57;;;;;;;-0.51;100.00;99315.06;5008069;28;20238;-77
2021/01/25 05:54:22;;;;;;;24.50;10.37;;;;;;;-0.51;100.00;99307.38;5030248;28;20228;-77
2021/01/25 05:56:48;;;;;;;26.37;10.90;;;;;;;-0.51;100.00;99309.94;5028373;28;20231;-77
2021/01/25 05:59:14;;;;;;;27.73;11.57;;;;;;;-0.53;100.00;99312.50;5013993;28;20586;-76
2021/01/25 06:01:40;;;;;;;23.63;10.70;;;;;;;-0.52;100.00;99313.38;5027054;28;20609;-76
2021/01/25 06:04:07;;;;;;;22.00;9.23;;;;;;;-0.53;100.00;99320.19;5022348;28;20213;-77
2021/01/25 06:06:34;;;;;;;26.10;10.73;;;;;;;-0.55;100.00;99316.78;5023079;28;20737;-77
2021/01/25 06:09:08;;;;;;;23.47;10.30;;;;;;;-0.57;100.00;99321.91;5023084;28;20683;-77
2021/01/25 06:11:36;;;;;;;20.17;9.47;;;;;;;-0.59;100.00;99328.72;5021233;28;20297;-77
2021/01/25 06:14:10;;;;;;;23.70;9.93;;;;;;;-0.63;100.00;99328.75;5024777;28;20203;-77
2021/01/25 06:16:35;;;;;;;18.57;8.50;;;;;;;-0.65;100.00;99328.75;5022494;28;20216;-77
2021/01/25 06:19:03;;;;;;;21.63;9.60;;;;;;;-0.67;100.00;99330.47;5023760;28;20195;-77
2021/01/25 06:21:32;;;;;;;18.20;9.10;;;;;;;-0.68;100.00;99333.88;5028395;28;20227;-77
2021/01/25 06:24:01;;;;;;;20.97;9.13;;;;;;;-0.69;100.00;99342.41;5028617;28;20698;-77
2021/01/25 06:26:30;;;;;;;17.30;8.33;;;;;;;-0.71;100.00;99343.25;5023028;28;20223;-77
2021/01/25 06:29:01;;;;;;;19.30;9.13;;;;;;;-0.73;100.00;99350.94;5020433;28;20209;-77
2021/01/25 06:31:27;;;;;;;20.87;8.57;;;;;;;-0.73;100.00;99347.53;5020946;28;20195;-78
2021/01/25 06:33:53;;;;;;;15.17;7.60;;;;;;;-0.75;100.00;99349.25;5022979;28;20208;-77
2021/01/25 06:36:20;;;;;;;19.67;7.93;;;;;;;-0.78;100.00;99345.81;5026354;28;20247;-77
2021/01/25 06:38:49;;;;;;;17.87;8.47;;;;;;;-0.80;100.00;99359.47;5024670;28;20196;-76
2021/01/25 06:41:16;;;;;;;15.80;8.37;;;;;;;-0.81;100.00;99360.31;5024125;28;20204;-77
2021/01/25 06:43:43;;;;;;;19.53;8.87;;;;;;;-0.84;100.00;99362.91;5021860;28;20238;-77
2021/01/25 06:46:11;;;;;;;20.30;8.47;;;;;;;-0.85;100.00;99362.03;5025497;28;20234;-77
2021/01/25 06:48:37;;;;;;;17.67;8.93;;;;;;;-0.88;100.00;99359.50;5022171;28;20195;-77
2021/01/25 06:51:06;;;;;;;16.80;7.93;;;;;;;-0.88;100.00;99363.72;5029960;28;20604;-77
2021/01/25 06:53:32;;;;;;;16.70;8.33;;;;;;;-0.91;100.00;99372.28;5019959;28;20208;-77
2021/01/25 06:55:59;;;;;;;19.20;8.40;;;;;;;-0.92;100.00;99365.44;5032431;28;20242;-77
2021/01/25 06:58:28;;;;;;;17.00;8.23;;;;;;;-0.93;100.00;99371.44;5020580;28;20215;-77
2021/01/25 07:00:54;;;;;;;20.53;8.83;;;;;;;-0.91;100.00;99377.41;5027721;28;20223;-77
2021/01/25 07:03:21;;;;;;;18.60;9.23;;;;;;;-0.91;100.00;99376.56;5023329;28;20239;-77
2021/01/25 07:05:49;;;;;;;23.47;9.17;;;;;;;-0.90;100.00;99376.53;5029416;28;20303;-77
2021/01/25 07:08:20;;;;;;;21.20;9.70;;;;;;;-0.90;100.00;99373.97;5025257;28;20208;-76
2021/01/25 07:10:57;;;;;;;19.80;10.07;;;;;;;-0.94;100.00;99377.38;5025366;28;20204;-77
2021/01/25 07:13:25;;;;;;;18.70;8.83;;;;;;;-0.95;100.00;99380.78;5023899;28;20205;-77
2021/01/25 07:15:52;;;;;;;19.23;9.67;;;;;;;-0.98;100.00;99378.25;5031134;28;20826;-77
2021/01/25 07:18:19;;;;;;;21.27;9.17;;;;;;;-1.04;100.00;99385.91;5024006;28;20215;-76
2021/01/25 07:20:50;;;;;;;23.30;9.07;;;;;;;-1.09;100.00;99383.34;5028318;28;20352;-76
2021/01/25 07:23:18;;;;;;;19.50;9.03;;;;;;;-1.12;100.00;99378.22;5024861;28;20235;-77
2021/01/25 07:25:53;;;;;;;15.73;8.27;;;;;;;-1.16;100.00;99386.75;5030720;28;20227;-77
2021/01/25 07:28:19;;;;;;;20.57;9.27;;;;;;;-1.16;100.00;99386.75;5023618;28;20212;-76
2021/01/25 07:30:45;;;;;;;18.30;8.70;;;;;;;-1.18;100.00;99391.00;5029313;28;20283;-77
2021/01/25 07:33:11;;;;;;;17.80;9.23;;;;;;;-1.24;100.00;99391.00;5026605;28;20187;-77
2021/01/25 07:35:37;;;;;;;18.63;8.57;;;;;;;-1.27;100.00;99399.50;5024359;28;20274;-76
2021/01/25 07:38:03;;;;;;;22.83;8.53;;;;;;;-1.29;100.00;99406.31;5025024;28;20734;-77
2021/01/25 07:40:29;;;;;;;21.07;9.93;;;;;;;-1.28;100.00;99413.16;5022344;28;20758;-77
2021/01/25 07:42:55;;;;;;;16.53;8.97;;;;;;;-1.28;100.00;99414.88;5026129;28;20211;-76
2021/01/25 07:45:22;;;;;;;17.77;8.43;;;;;;;-1.25;100.00;99415.72;5007214;28;20228;-77
2021/01/25 07:47:48;;;;;;;19.63;9.33;;;;;;;-1.22;100.00;99417.44;5009203;28;20240;-77
2021/01/25 07:50:15;;;;;;;19.37;8.70;;;;;;;-1.18;100.00;99425.13;5019154;28;20262;-77
2021/01/25 07:52:41;;;;;;;19.10;9.57;;;;;;;-1.12;100.00;99421.72;5008883;28;20622;-77
2021/01/25 07:55:13;;;;;;;20.13;9.00;;;;;;;-1.05;100.00;99431.09;5020292;28;20266;-77
2021/01/25 07:57:39;;;;;;;20.17;9.47;;;;;;;-1.02;100.00;99428.56;5025707;28;20196;-77
2021/01/25 08:00:16;;;;;;;19.23;9.73;;;;;;;-0.96;100.00;99428.56;5023202;28;20223;-77
2021/01/25 08:02:43;;;;;;;19.50;9.60;;;;;;;-0.90;100.00;99434.53;5025534;28;20195;-77
2021/01/25 08:05:11;;;;;;;21.20;10.20;;;;;;;-0.85;100.00;99433.69;5018899;28;20228;-77
2021/01/25 08:07:38;;;;;;;20.50;9.10;;;;;;;-0.80;100.00;99441.38;5022336;28;20192;-77
2021/01/25 08:10:05;;;;;;;24.23;10.97;;;;;;;-0.78;100.00;99432.84;5020586;28;20213;-77
2021/01/25 08:12:32;;;;;;;22.27;9.60;;;;;;;-0.73;100.00;99437.13;5033746;28;20200;-76
2021/01/25 08:15:08;;;;;;;22.40;9.77;;;;;;;-0.70;100.00;99437.09;5021974;28;20195;-77
2021/01/25 08:17:37;;;;;;;20.77;9.80;;;;;;;-0.64;100.00;99440.53;5023799;28;20193;-77
2021/01/25 08:20:09;;;;;;;21.27;9.67;;;;;;;-0.59;100.00;99443.09;5022351;28;20735;-77
2021/01/25 08:22:40;;;;;;;21.87;10.10;;;;;;;-0.60;100.00;99455.06;5026007;28;20204;-76
2021/01/25 08:25:07;;;;;;;25.57;11.97;;;;;;;-0.54;100.00;99456.75;5007142;28;20344;-77
2021/01/25 08:27:36;;;;;;;30.97;13.10;;;;;;;-0.52;100.00;99451.66;5026477;28;20200;-77
2021/01/25 08:30:06;;;;;;;27.73;11.97;;;;;;;-0.49;100.00;99460.19;5023757;28;20567;-77
2021/01/25 08:32:41;;;;;;;29.23;12.87;;;;;;;-0.45;100.00;99463.59;5009014;28;20195;-77
2021/01/25 08:35:08;;;;;;;30.50;12.80;;;;;;;-0.41;100.00;99466.13;5023953;28;20231;-77
2021/01/25 08:37:35;;;;;;;31.67;13.87;;;;;;;-0.37;100.00;99464.44;5025090;28;20192;-77
2021/01/25 08:40:12;;;;;;;27.87;12.50;;;;;;;-0.35;100.00;99462.75;5022521;28;20211;-77
2021/01/25 08:42:38;;;;;;;27.60;12.33;;;;;;;-0.33;100.00;99455.91;5028579;28;20646;-77
2021/01/25 08:45:09;;;;;;;30.03;12.83;;;;;;;-0.31;100.00;99459.31;5027922;28;20235;-76
2021/01/25 08:47:36;;;;;;;28.70;12.90;;;;;;;-0.26;100.00;99469.56;5032265;28;20571;-77
2021/01/25 08:50:16;;;;;;;29.90;12.67;;;;;;;-0.23;100.00;99467.00;5024818;28;20273;-77
2021/01/25 08:52:42;;;;;;;28.73;12.07;;;;;;;-0.22;100.00;99464.44;5031507;28;20332;-77
2021/01/25 08:55:11;;;;;;;30.57;13.77;;;;;;;-0.16;100.00;99470.41;5023445;28;20231;-77
2021/01/25 08:57:40;;;;;;;33.60;12.33;;;;;;;-0.12;100.00;99470.41;5023573;28;20255;-77
2021/01/25 09:00:16;;;;;;;30.93;13.23;;;;;;;-0.11;100.00;99466.13;5024141;28;20204;-77
2021/01/25 09:02:41;;;;;;;34.27;13.67;;;;;;;-0.06;100.00;99472.09;5027420;28;20206;-77
2021/01/25 09:05:09;;;;;;;30.57;14.13;;;;;;;-0.06;100.00;99464.41;5029066;28;20219;-77
2021/01/25 09:07:35;;;;;;;36.03;14.70;;;;;;;-0.01;100.00;99467.81;5024292;28;20196;-77
2021/01/25 09:10:01;;;;;;;29.87;13.70;;;;;;;0.02;100.00;99474.66;5029325;28;20211;-76
2021/01/25 09:12:27;;;;;;;33.07;13.77;;;;;;;-0.02;100.00;99473.78;5025930;28;20713;-77
2021/01/25 09:14:53;;;;;;;31.67;13.13;;;;;;;-0.10;100.00;99465.28;5029842;28;20199;-76
2021/01/25 09:17:21;;;;;;;34.87;13.37;;;;;;;-0.18;100.00;99469.56;5024724;28;20747;-77
2021/01/25 09:19:48;;;;;;;35.03;13.93;;;;;;;-0.26;100.00;99479.81;5028484;28;20220;-77
2021/01/25 09:22:14;;;;;;;31.77;13.23;;;;;;;-0.30;100.00;99476.41;5025017;28;20271;-76
2021/01/25 09:24:40;;;;;;;39.80;14.53;;;;;;;-0.30;100.00;99485.78;5028251;28;20243;-77
2021/01/25 09:27:07;;;;;;;32.00;13.80;;;;;;;-0.26;100.00;99490.06;5027099;28;20722;-77
2021/01/25 09:29:32;;;;;;;33.13;13.80;;;;;;;-0.24;100.00;99491.75;5025996;28;20196;-77
2021/01/25 09:31:59;;;;;;;39.83;14.43;;;;;;;-0.19;100.00;99489.22;5025458;28;20736;-77
2021/01/25 09:34:25;;;;;;;41.57;16.27;;;;;;;-0.14;100.00;99497.75;5031807;28;20875;-77
2021/01/25 09:36:51;;;;;;;38.97;16.47;;;;;;;-0.09;100.00;99505.41;5026745;28;20235;-77
2021/01/25 09:39:18;;;;;;;35.50;14.33;;;;;;;0.00;100.00;99500.31;5029878;28;20203;-77
2021/01/25 09:41:46;;;;;;;28.63;13.20;;;;;;;0.07;100.00;99493.44;5022114;28;20556;-77
2021/01/25 09:44:13;;;;;;;33.83;14.43;;;;;;;0.23;100.00;99507.06;5029278;28;20209;-77
2021/01/25 09:46:39;;;;;;;32.33;13.43;;;;;;;0.41;100.00;99504.50;5028435;28;20216;-77
2021/01/25 09:49:05;;;;;;;38.10;14.63;;;;;;;0.54;100.00;99508.69;5027186;28;20450;-77
2021/01/25 09:51:31;;;;;;;33.53;12.93;;;;;;;0.46;100.00;99513.03;5028043;28;20719;-77
2021/01/25 09:53:57;;;;;;;31.70;13.13;;;;;;;0.52;100.00;99514.72;5005212;28;20732;-78
2021/01/25 09:56:23;;;;;;;35.77;12.10;;;;;;;0.62;100.00;99518.97;5025294;28;20219;-78
2021/01/25 09:58:49;;;;;;;31.27;12.17;;;;;;;0.67;100.00;99519.81;5027011;28;20207;-77
2021/01/25 10:01:15;;;;;;;28.57;11.23;;;;;;;0.77;100.00;99517.19;5026405;28;20301;-77
2021/01/25 10:03:41;;;;;;;24.17;11.07;;;;;;;0.90;100.00;99527.41;5027622;28;20210;-77
2021/01/25 10:06:08;;;;;;;31.87;12.97;;;;;;;1.07;100.00;99526.47;5023570;28;20224;-77
2021/01/25 10:08:36;;;;;;;33.43;12.97;;;;;;;1.27;100.00;99534.91;5026517;28;20221;-78
2021/01/25 10:11:03;;;;;;;32.33;12.70;;;;;;;1.42;100.00;99533.97;5003570;28;20252;-77
2021/01/25 10:13:29;;;;;;;30.43;12.97;;;;;;;1.43;100.00;99530.53;5023527;28;20264;-77
2021/01/25 10:15:54;;;;;;;32.73;12.50;;;;;;;1.46;99.77;99547.63;5029473;28;20227;-76
2021/01/25 10:18:20;;;;;;;30.67;12.80;;;;;;;1.43;99.44;99538.25;5026384;28;20200;-78
2021/01/25 10:20:46;;;;;;;34.83;13.63;;;;;;;1.43;99.33;99545.13;5037321;28;20207;-77
2021/01/25 10:23:12;;;;;;;28.47;12.37;;;;;;;1.41;98.54;99532.28;5025494;28;20203;-77
2021/01/25 10:25:39;;;;;;;35.30;15.03;;;;;;;1.37;97.05;99545.13;5027804;28;20227;-78
2021/01/25 10:28:05;;;;;;;33.53;13.50;;;;;;;1.37;97.31;99543.41;5024897;28;20215;-77
2021/01/25 10:30:31;;;;;;;30.17;12.83;;;;;;;1.37;97.17;99545.97;5028625;28;20605;-77
2021/01/25 10:32:57;;;;;;;27.67;12.63;;;;;;;1.32;96.70;99543.47;5023462;28;20211;-77
2021/01/25 10:35:23;;;;;;;33.10;14.00;;;;;;;1.34;98.09;99546.03;5027112;28;20208;-77
2021/01/25 10:37:50;;;;;;;25.43;12.60;;;;;;;1.26;97.26;99547.75;5026817;28;20204;-78
2021/01/25 10:40:17;;;;;;;28.47;13.90;;;;;;;1.22;97.53;99541.78;5009812;28;20199;-77
2021/01/25 10:42:44;;;;;;;29.13;13.37;;;;;;;1.07;97.14;99547.88;5026829;28;20750;-78
2021/01/25 10:45:11;;;;;;;30.83;13.87;;;;;;;0.99;97.00;99556.47;5011719;28;20259;-77
2021/01/25 10:47:37;;;;;;;32.20;15.30;;;;;;;0.93;97.72;99550.50;5005839;28;20200;-74
2021/01/25 10:50:05;;;;;;;28.33;14.07;;;;;;;0.88;97.94;99554.78;5024256;28;20676;-77
2021/01/25 10:52:32;;;;;;;26.53;12.87;;;;;;;0.81;98.27;99549.66;5026876;28;20209;-77
2021/01/25 10:54:58;;;;;;;29.90;13.40;;;;;;;0.83;98.53;99553.13;5028812;28;20199;-77
2021/01/25 10:57:24;;;;;;;25.73;12.37;;;;;;;0.81;98.91;99555.69;5029119;28;20696;-77
2021/01/25 10:59:51;;;;;;;28.97;13.17;;;;;;;0.79;98.93;99557.38;5031230;28;20227;-77
2021/01/25 11:02:17;;;;;;;42.20;19.93;;;;;;;0.76;98.41;99562.53;5031575;28;20211;-77
2021/01/25 11:04:43;;;;;;;26.97;13.87;;;;;;;0.77;98.62;99560.81;5028872;28;20494;-77
2021/01/25 11:07:09;;;;;;;21.53;11.17;;;;;;;0.71;98.77;99559.97;5026695;28;20200;-77
2021/01/25 11:09:35;;;;;;;30.30;14.73;;;;;;;0.72;99.13;99565.94;5024713;28;20201;-77
2021/01/25 11:12:01;;;;;;;26.63;13.23;;;;;;;0.70;99.32;99567.66;5025879;28;20455;-77
2021/01/25 11:14:27;;;;;;;24.43;11.90;;;;;;;0.69;99.84;99561.69;5005545;28;20644;-77